createdAt,value
2019-02-18T00:00:38.606Z,59.77
2019-02-18T00:01:38.604Z,59.77
2019-02-18T00:02:38.611Z,59.58
2019-02-18T00:03:38.595Z,59.58
2019-02-18T00:04:38.591Z,59.77
2019-02-18T00:05:38.599Z,59.86
2019-02-18T00:06:38.589Z,60.53
2019-02-18T00:07:38.585Z,60.44
2019-02-18T00:08:38.581Z,60.24
2019-02-18T00:09:38.575Z,60.34
2019-02-18T00:10:38.573Z,60.05
2019-02-18T00:11:38.576Z,60.24
2019-02-18T00:12:38.568Z,61.16
2019-02-18T00:13:38.563Z,62.02
2019-02-18T00:14:38.559Z,62.78
2019-02-18T00:15:38.565Z,63.79
2019-02-18T00:16:38.556Z,64.46
2019-02-18T00:17:38.551Z,65.03
2019-02-18T00:18:38.549Z,65.80
2019-02-18T00:19:38.549Z,66.05
2019-02-18T00:20:38.541Z,67.28
2019-02-18T00:21:38.539Z,67.57
2019-02-18T00:22:38.536Z,68.39
2019-02-18T00:23:38.532Z,69.62
2019-02-18T00:24:38.528Z,70.29
2019-02-18T00:25:38.523Z,70.00
2019-02-18T00:26:38.521Z,70.10
2019-02-18T00:27:38.517Z,70.86
2019-02-18T00:28:38.512Z,72.06
2019-02-18T00:29:38.508Z,72.72
2019-02-18T00:30:38.507Z,72.63
2019-02-18T00:31:38.501Z,72.72
2019-02-18T00:32:38.517Z,73.67
2019-02-18T00:33:38.495Z,73.67
2019-02-18T00:34:38.491Z,74.33
2019-02-18T00:35:38.498Z,75.38
2019-02-18T00:36:38.482Z,75.00
2019-02-18T00:37:38.479Z,75.19
2019-02-18T00:38:38.473Z,75.72
2019-02-18T00:39:38.479Z,76.14
2019-02-18T00:40:38.464Z,76.29
2019-02-18T00:41:38.460Z,76.39
2019-02-18T00:42:38.454Z,76.29
2019-02-18T00:43:38.451Z,75.91
2019-02-18T00:44:38.452Z,76.67
2019-02-18T00:45:38.440Z,77.43
2019-02-18T00:46:38.435Z,77.71
2019-02-18T00:47:38.433Z,77.05
2019-02-18T00:48:38.426Z,77.33
2019-02-18T00:49:38.424Z,77.81
2019-02-18T00:50:38.425Z,78.28
2019-02-18T00:51:38.414Z,78.19
2019-02-18T00:52:38.406Z,78.19
2019-02-18T00:53:38.404Z,78.09
2019-02-18T00:54:38.402Z,78.19
2019-02-18T00:55:38.399Z,78.81
2019-02-18T00:56:38.391Z,79.61
2019-02-18T00:57:38.387Z,78.62
2019-02-18T00:58:38.382Z,79.10
2019-02-18T00:59:38.388Z,79.76
2019-02-18T01:00:38.374Z,79.76
2019-02-18T01:01:38.366Z,79.85
2019-02-18T01:02:38.363Z,80.33
2019-02-18T01:03:38.362Z,80.04
2019-02-18T01:04:38.353Z,80.43
2019-02-18T01:05:38.347Z,81.09
2019-02-18T01:06:38.342Z,80.71
2019-02-18T01:07:38.345Z,80.43
2019-02-18T01:08:38.334Z,80.99
2019-02-18T01:09:38.327Z,80.43
2019-02-18T01:10:38.324Z,80.80
2019-02-18T01:11:38.319Z,80.43
2019-02-18T01:12:38.314Z,80.99
2019-02-18T01:13:38.306Z,81.09
2019-02-18T01:14:38.321Z,80.43
2019-02-18T01:15:38.297Z,80.24
2019-02-18T01:16:38.289Z,80.99
2019-02-18T01:17:38.285Z,80.43
2019-02-18T01:18:38.295Z,81.09
2019-02-18T01:19:38.276Z,80.90
2019-02-18T01:20:38.273Z,81.09
2019-02-18T01:21:38.276Z,81.37
2019-02-18T01:22:38.260Z,81.09
2019-02-18T01:23:38.255Z,80.99
2019-02-18T01:24:38.250Z,81.56
2019-02-18T01:25:38.269Z,81.47
2019-02-18T01:26:38.242Z,81.47
2019-02-18T01:27:38.251Z,81.47
2019-02-18T01:28:38.229Z,81.18
2019-02-18T01:29:38.222Z,81.47
2019-02-18T01:30:38.218Z,81.99
2019-02-18T01:31:38.219Z,81.81
2019-02-18T01:32:38.211Z,81.62
2019-02-18T01:33:38.200Z,81.71
2019-02-18T01:34:38.201Z,82.56
2019-02-18T01:35:38.194Z,82.37
2019-02-18T01:36:38.183Z,82.37
2019-02-18T01:37:45.363Z,82.28
2019-02-18T01:38:38.172Z,82.56
2019-02-18T01:39:38.168Z,82.37
2019-02-18T01:40:38.165Z,82.66
2019-02-18T01:41:38.157Z,82.18
2019-02-18T01:42:38.151Z,82.75
2019-02-18T01:43:38.151Z,83.13
2019-02-18T01:44:38.136Z,82.85
2019-02-18T01:45:38.132Z,82.85
2019-02-18T01:46:38.129Z,82.47
2019-02-18T01:47:38.120Z,82.85
2019-02-18T01:48:38.118Z,82.85
2019-02-18T01:49:38.112Z,83.51
2019-02-18T01:50:38.117Z,83.42
2019-02-18T01:51:38.125Z,83.04
2019-02-18T01:52:38.094Z,82.85
2019-02-18T01:53:38.085Z,82.75
2019-02-18T01:54:38.081Z,82.85
2019-02-18T01:55:38.079Z,82.85
2019-02-18T01:56:38.081Z,83.04
2019-02-18T01:57:38.064Z,82.37
2019-02-18T01:58:38.058Z,82.75
2019-02-18T01:59:38.053Z,82.85
2019-02-18T02:00:38.046Z,82.75
2019-02-18T02:01:38.043Z,82.94
2019-02-18T02:02:38.034Z,83.32
2019-02-18T02:03:38.029Z,83.04
2019-02-18T02:04:38.023Z,82.75
2019-02-18T02:05:38.015Z,83.13
2019-02-18T02:06:38.012Z,83.51
2019-02-18T02:07:38.004Z,83.18
2019-02-18T02:08:37.997Z,84.13
2019-02-18T02:09:37.998Z,84.23
2019-02-18T02:10:37.986Z,84.51
2019-02-18T02:11:37.991Z,84.70
2019-02-18T02:12:37.970Z,85.17
2019-02-18T02:13:37.969Z,84.89
2019-02-18T02:14:37.958Z,84.80
2019-02-18T02:15:37.962Z,84.61
2019-02-18T02:16:37.948Z,84.99
2019-02-18T02:17:37.943Z,84.89
2019-02-18T02:18:37.932Z,84.80
2019-02-18T02:19:37.931Z,84.42
2019-02-18T02:20:37.928Z,84.13
2019-02-18T02:21:37.917Z,84.51
2019-02-18T02:22:37.909Z,84.51
2019-02-18T02:23:37.907Z,84.42
2019-02-18T02:24:37.897Z,84.70
2019-02-18T02:25:37.963Z,84.74
2019-02-18T02:26:37.886Z,84.94
2019-02-18T02:27:37.940Z,83.89
2019-02-18T02:28:37.881Z,84.08
2019-02-18T02:29:37.865Z,84.04
2019-02-18T02:30:37.879Z,84.13
2019-02-18T02:31:37.859Z,83.85
2019-02-18T02:32:37.848Z,84.80
2019-02-18T02:33:37.845Z,84.80
2019-02-18T02:34:37.833Z,85.46
2019-02-18T02:35:37.836Z,85.27
2019-02-18T02:36:37.822Z,84.80
2019-02-18T02:37:37.815Z,84.89
2019-02-18T02:38:37.825Z,85.36
2019-02-18T02:39:37.829Z,85.36
2019-02-18T02:40:37.799Z,84.89
2019-02-18T02:41:37.789Z,85.46
2019-02-18T02:42:37.784Z,85.93
2019-02-18T02:43:37.791Z,84.89
2019-02-18T02:44:37.775Z,84.51
2019-02-18T02:45:37.768Z,85.08
2019-02-18T02:46:37.756Z,86.12
2019-02-18T02:47:37.751Z,85.84
2019-02-18T02:48:37.746Z,86.12
2019-02-18T02:49:37.741Z,85.65
2019-02-18T02:50:37.733Z,85.65
2019-02-18T02:51:37.728Z,86.12
2019-02-18T02:52:37.718Z,85.84
2019-02-18T02:53:37.713Z,86.31
2019-02-18T02:54:37.718Z,86.41
2019-02-18T02:55:37.700Z,86.50
2019-02-18T02:56:37.689Z,85.74
2019-02-18T02:57:37.687Z,85.27
2019-02-18T02:58:37.682Z,84.80
2019-02-18T02:59:37.676Z,85.93
2019-02-18T03:00:37.669Z,85.84
2019-02-18T03:01:37.672Z,85.46
2019-02-18T03:02:37.651Z,85.55
2019-02-18T03:03:37.650Z,85.55
2019-02-18T03:04:37.638Z,85.93
2019-02-18T03:05:37.630Z,85.93
2019-02-18T03:06:37.629Z,85.74
2019-02-18T03:07:37.623Z,84.89
2019-02-18T03:08:37.614Z,84.13
2019-02-18T03:09:37.605Z,83.94
2019-02-18T03:10:37.600Z,84.04
2019-02-18T03:11:37.594Z,84.04
2019-02-18T03:12:37.594Z,83.66
2019-02-18T03:13:37.583Z,84.04
2019-02-18T03:14:37.571Z,84.80
2019-02-18T03:15:37.591Z,84.80
2019-02-18T03:16:37.573Z,84.04
2019-02-18T03:17:37.554Z,84.61
2019-02-18T03:18:37.546Z,83.85
2019-02-18T03:19:37.540Z,84.42
2019-02-18T03:20:37.529Z,83.85
2019-02-18T03:21:37.535Z,84.00
2019-02-18T03:22:37.534Z,84.75
2019-02-18T03:23:37.519Z,85.80
2019-02-18T03:24:37.502Z,85.99
2019-02-18T03:25:37.494Z,85.70
2019-02-18T03:26:37.489Z,85.61
2019-02-18T03:27:37.483Z,86.65
2019-02-18T03:28:37.475Z,86.74
2019-02-18T03:29:37.469Z,86.55
2019-02-18T03:30:37.460Z,86.08
2019-02-18T03:31:37.454Z,85.80
2019-02-18T03:32:37.454Z,85.42
2019-02-18T03:33:37.449Z,84.94
2019-02-18T03:34:37.443Z,85.61
2019-02-18T03:35:37.450Z,85.42
2019-02-18T03:36:37.422Z,85.80
2019-02-18T03:37:37.415Z,84.94
2019-02-18T03:38:37.408Z,85.32
2019-02-18T03:39:37.424Z,85.89
2019-02-18T03:40:37.403Z,85.61
2019-02-18T03:41:37.382Z,85.23
2019-02-18T03:42:37.389Z,85.42
2019-02-18T03:43:37.379Z,85.80
2019-02-18T03:44:37.365Z,85.70
2019-02-18T03:45:37.359Z,85.80
2019-02-18T03:46:37.348Z,85.51
2019-02-18T03:47:37.342Z,85.61
2019-02-18T03:48:37.349Z,85.80
2019-02-18T03:49:37.436Z,85.89
2019-02-18T03:50:37.321Z,85.70
2019-02-18T03:51:37.316Z,86.08
2019-02-18T03:52:37.303Z,86.36
2019-02-18T03:53:37.300Z,86.08
2019-02-18T03:54:37.308Z,86.18
2019-02-18T03:55:37.305Z,86.65
2019-02-18T03:56:37.312Z,86.36
2019-02-18T03:57:37.269Z,86.55
2019-02-18T03:58:37.309Z,87.02
2019-02-18T03:59:37.313Z,86.65
2019-02-18T04:00:37.247Z,86.18
2019-02-18T04:01:37.249Z,86.27
2019-02-18T04:02:37.235Z,87.02
2019-02-18T04:03:37.228Z,86.27
2019-02-18T04:04:37.274Z,86.27
2019-02-18T04:05:37.213Z,86.46
2019-02-18T04:06:37.213Z,87.02
2019-02-18T04:07:37.204Z,86.65
2019-02-18T04:08:42.857Z,86.36
2019-02-18T04:09:37.190Z,86.55
2019-02-18T04:10:37.201Z,86.65
2019-02-18T04:11:37.173Z,86.55
2019-02-18T04:12:37.165Z,86.55
2019-02-18T04:13:37.151Z,86.18
2019-02-18T04:14:37.151Z,86.18
2019-02-18T04:15:37.166Z,86.46
2019-02-18T04:16:37.152Z,85.99
2019-02-18T04:17:37.124Z,85.80
2019-02-18T04:18:37.121Z,86.27
2019-02-18T04:19:37.114Z,86.08
2019-02-18T04:20:37.110Z,85.99
2019-02-18T04:21:37.108Z,85.51
2019-02-18T04:22:37.087Z,85.61
2019-02-18T04:23:37.083Z,85.32
2019-02-18T04:24:37.076Z,86.08
2019-02-18T04:25:37.070Z,86.65
2019-02-18T04:26:37.064Z,87.21
2019-02-18T04:27:37.058Z,87.78
2019-02-18T04:28:37.052Z,87.50
2019-02-18T04:29:37.065Z,88.45
2019-02-18T04:30:37.138Z,88.45
2019-02-18T04:31:37.024Z,88.07
2019-02-18T04:32:37.016Z,88.54
2019-02-18T04:33:37.023Z,88.17
2019-02-18T04:34:37.001Z,87.88
2019-02-18T04:35:36.993Z,87.69
2019-02-18T04:36:36.984Z,87.12
2019-02-18T04:37:36.992Z,86.93
2019-02-18T04:38:36.972Z,86.74
2019-02-18T04:39:36.964Z,86.55
2019-02-18T04:40:36.955Z,86.93
2019-02-18T04:41:36.950Z,86.46
2019-02-18T04:42:36.940Z,86.83
2019-02-18T04:43:36.951Z,86.46
2019-02-18T04:44:36.930Z,86.74
2019-02-18T04:45:36.917Z,86.65
2019-02-18T04:46:36.913Z,86.55
2019-02-18T04:47:36.906Z,85.80
2019-02-18T04:48:36.908Z,86.55
2019-02-18T04:49:38.613Z,86.93
2019-02-18T04:50:36.886Z,87.12
2019-02-18T04:51:36.876Z,86.93
2019-02-18T04:52:36.875Z,87.31
2019-02-18T04:53:36.863Z,87.98
2019-02-18T04:54:36.852Z,87.78
2019-02-18T04:55:36.846Z,87.40
2019-02-18T04:56:36.838Z,87.69
2019-02-18T04:57:36.841Z,88.17
2019-02-18T04:58:36.833Z,88.17
2019-02-18T04:59:36.821Z,87.69
2019-02-18T05:00:36.814Z,88.07
2019-02-18T05:01:36.817Z,88.40
2019-02-18T05:02:36.794Z,88.21
2019-02-18T05:03:36.800Z,88.12
2019-02-18T05:04:36.799Z,88.02
2019-02-18T05:05:36.770Z,88.02
2019-02-18T05:06:36.761Z,88.78
2019-02-18T05:07:36.807Z,89.16
2019-02-18T05:08:36.750Z,88.78
2019-02-18T05:09:36.745Z,89.06
2019-02-18T05:10:36.736Z,88.78
2019-02-18T05:11:36.749Z,88.78
2019-02-18T05:12:36.717Z,89.06
2019-02-18T05:13:36.758Z,89.06
2019-02-18T05:14:36.704Z,88.87
2019-02-18T05:15:36.700Z,88.78
2019-02-18T05:16:36.695Z,89.63
2019-02-18T05:17:36.685Z,89.35
2019-02-18T05:18:36.685Z,88.87
2019-02-18T05:19:36.664Z,88.78
2019-02-18T05:20:36.655Z,89.49
2019-02-18T05:21:36.650Z,89.01
2019-02-18T05:22:36.660Z,89.06
2019-02-18T05:23:36.650Z,88.92
2019-02-18T05:24:36.627Z,88.92
2019-02-18T05:25:36.619Z,88.92
2019-02-18T05:26:36.618Z,88.78
2019-02-18T05:27:38.423Z,88.87
2019-02-18T05:28:36.596Z,88.87
2019-02-18T05:29:43.947Z,88.97
2019-02-18T05:31:30.067Z,89.35
2019-02-18T05:32:29.994Z,89.06
2019-02-18T05:34:25.186Z,89.82
2019-02-18T05:35:23.374Z,89.25
2019-02-18T05:36:30.826Z,89.25
2019-02-18T05:38:16.914Z,89.73
2019-02-18T05:39:18.428Z,90.01
2019-02-18T05:41:10.485Z,89.82
2019-02-18T05:42:10.192Z,89.82
2019-02-18T05:43:10.171Z,89.96
2019-02-18T05:44:10.160Z,90.15
2019-02-18T05:45:10.164Z,90.11
2019-02-18T05:46:10.192Z,89.82
2019-02-18T05:47:11.742Z,89.92
2019-02-18T05:48:10.284Z,89.25
2019-02-18T05:49:10.119Z,89.77
2019-02-18T05:50:10.101Z,90.11
2019-02-18T05:51:17.804Z,90.39
2019-02-18T05:53:11.134Z,90.39
2019-02-18T05:54:03.664Z,90.30
2019-02-18T05:55:57.391Z,90.30
2019-02-18T05:56:57.074Z,90.30
2019-02-18T05:58:50.644Z,90.77
2019-02-18T05:59:57.980Z,91.34
2019-02-18T06:01:44.221Z,90.86
2019-02-18T06:02:43.505Z,90.86
2019-02-18T06:04:36.412Z,91.05
2019-02-18T06:05:36.091Z,90.96
2019-02-18T06:07:29.223Z,91.43
2019-02-18T06:08:28.957Z,90.67
2019-02-18T06:10:22.605Z,91.53
2019-02-18T06:11:22.689Z,91.72
2019-02-18T06:13:15.980Z,91.91
2019-02-18T06:14:15.811Z,91.62
2019-02-18T06:16:08.845Z,91.62
2019-02-18T06:17:08.542Z,91.62
2019-02-18T06:19:01.913Z,91.24
2019-02-18T06:20:01.384Z,91.34
2019-02-18T06:21:54.520Z,90.77
2019-02-18T06:22:54.398Z,91.05
2019-02-18T06:24:48.054Z,91.81
2019-02-18T06:25:49.821Z,91.72
2019-02-18T06:27:40.759Z,92.38
2019-02-18T06:28:40.484Z,91.91
2019-02-18T06:30:34.690Z,92.29
2019-02-18T06:31:33.540Z,92.00
2019-02-18T06:33:28.380Z,92.66
2019-02-18T06:34:26.723Z,92.94
2019-02-18T06:36:19.620Z,92.29
2019-02-18T06:37:19.596Z,92.94
2019-02-18T06:39:13.212Z,92.66
2019-02-18T06:40:13.004Z,92.66
2019-02-18T06:42:06.004Z,92.66
2019-02-18T06:43:05.745Z,92.94
2019-02-18T06:44:59.681Z,92.29
2019-02-18T06:45:59.627Z,92.57
2019-02-18T06:47:53.302Z,92.76
2019-02-18T06:48:53.213Z,92.57
2019-02-18T06:50:46.588Z,93.13
2019-02-18T06:51:46.346Z,93.13
2019-02-18T06:53:39.902Z,93.51
2019-02-18T06:54:39.612Z,92.76
2019-02-18T06:56:32.831Z,92.90
2019-02-18T06:57:32.869Z,92.43
2019-02-18T06:59:26.031Z,90.58
2019-02-18T07:00:25.800Z,89.34
2019-02-18T07:02:19.138Z,87.49
2019-02-18T07:03:19.139Z,87.77
2019-02-18T07:05:12.017Z,85.36
2019-02-18T07:06:11.973Z,83.59
2019-02-18T07:07:11.966Z,81.55
2019-02-18T07:08:11.959Z,79.12
2019-02-18T07:09:11.955Z,77.36
2019-02-18T07:10:11.942Z,75.30
2019-02-18T07:11:11.949Z,73.06
2019-02-18T07:12:11.941Z,71.06
2019-02-18T07:13:11.945Z,70.24
2019-02-18T07:14:11.942Z,69.19
2019-02-18T07:15:12.139Z,68.75
2019-02-18T07:16:11.919Z,67.03
2019-02-18T07:17:11.901Z,66.59
2019-02-18T07:18:11.914Z,65.07
2019-02-18T07:19:11.898Z,65.26
2019-02-18T07:20:11.901Z,64.05
2019-02-18T07:21:11.892Z,63.76
2019-02-18T07:22:11.887Z,63.00
2019-02-18T07:23:11.888Z,62.08
2019-02-18T07:24:11.882Z,60.94
2019-02-18T07:25:11.887Z,60.30
2019-02-18T07:26:11.883Z,59.63
2019-02-18T07:27:11.951Z,58.97
2019-02-18T07:28:11.882Z,59.63
2019-02-18T07:29:11.884Z,59.82
2019-02-18T07:30:11.880Z,59.16
2019-02-18T07:31:11.879Z,59.47
2019-02-18T07:32:11.884Z,58.51
2019-02-18T07:33:11.902Z,57.37
2019-02-18T07:34:11.883Z,57.09
2019-02-18T07:35:11.903Z,56.63
2019-02-18T07:36:19.187Z,56.60
2019-02-18T07:38:04.999Z,57.76
2019-02-18T07:39:04.777Z,59.61
2019-02-18T07:40:57.771Z,64.31
2019-02-18T07:41:57.658Z,66.39
2019-02-18T07:42:57.647Z,67.03
2019-02-18T07:43:57.641Z,68.93
2019-02-18T07:44:57.658Z,70.23
2019-02-18T07:45:57.671Z,70.79
2019-02-18T07:46:57.664Z,71.84
2019-02-18T07:47:57.832Z,73.65
2019-02-18T07:48:57.648Z,73.55
2019-02-18T07:49:57.637Z,74.56
2019-02-18T07:50:57.639Z,76.27
2019-02-18T07:51:57.654Z,77.60
2019-02-18T07:52:57.632Z,79.03
2019-02-18T07:53:57.664Z,79.36
2019-02-18T07:54:57.631Z,80.32
2019-02-18T07:55:57.627Z,81.07
2019-02-18T07:56:57.699Z,81.74
2019-02-18T07:57:57.629Z,82.59
2019-02-18T07:58:57.626Z,82.78
2019-02-18T07:59:57.621Z,81.74
2019-02-18T08:00:57.621Z,81.07
2019-02-18T08:01:57.632Z,81.36
2019-02-18T08:02:57.617Z,81.55
2019-02-18T08:03:57.613Z,81.26
2019-02-18T08:04:57.611Z,81.59
2019-02-18T08:05:57.610Z,81.59
2019-02-18T08:06:57.629Z,81.59
2019-02-18T08:07:57.602Z,81.78
2019-02-18T08:08:57.601Z,81.40
2019-02-18T08:09:57.597Z,81.59
2019-02-18T08:10:57.614Z,81.21
2019-02-18T08:11:57.599Z,81.30
2019-02-18T08:12:57.587Z,81.35
2019-02-18T08:13:57.587Z,80.58
2019-02-18T08:14:57.582Z,79.68
2019-02-18T08:15:57.581Z,77.24
2019-02-18T08:16:57.574Z,75.13
2019-02-18T08:17:57.570Z,72.02
2019-02-18T08:18:57.571Z,70.09
2019-02-18T08:19:57.566Z,68.09
2019-02-18T08:20:57.563Z,66.60
2019-02-18T08:21:57.561Z,64.21
2019-02-18T08:22:57.558Z,63.64
2019-02-18T08:24:00.094Z,64.40
2019-02-18T08:24:57.552Z,64.50
2019-02-18T08:25:57.551Z,63.73
2019-02-18T08:26:57.551Z,62.34
2019-02-18T08:27:57.552Z,61.51
2019-02-18T08:28:57.547Z,59.53
2019-02-18T08:29:57.546Z,59.34
2019-02-18T08:30:57.548Z,59.08
2019-02-18T08:31:57.560Z,58.61
2019-02-18T08:32:57.544Z,57.93
2019-02-18T08:33:57.549Z,57.87
2019-02-18T08:34:57.548Z,57.48
2019-02-18T08:35:57.564Z,57.42
2019-02-18T08:36:57.552Z,56.27
2019-02-18T08:37:57.554Z,55.73
2019-02-18T08:38:57.556Z,55.18
2019-02-18T08:39:57.566Z,52.97
2019-02-18T08:40:57.563Z,51.82
2019-02-18T08:41:57.573Z,51.92
2019-02-18T08:42:57.571Z,51.34
2019-02-18T08:43:57.574Z,50.67
2019-02-18T08:44:57.580Z,50.67
2019-02-18T08:45:57.587Z,51.32
2019-02-18T08:46:57.590Z,51.25
2019-02-18T08:47:57.593Z,51.15
2019-02-18T08:48:57.599Z,51.97
2019-02-18T08:49:57.603Z,49.21
2019-02-18T08:50:57.615Z,47.13
2019-02-18T08:51:57.613Z,46.58
2019-02-18T08:52:57.623Z,46.41
2019-02-18T08:53:57.631Z,45.78
2019-02-18T08:54:57.633Z,44.35
2019-02-18T08:55:57.638Z,42.93
2019-02-18T08:56:57.646Z,41.13
2019-02-18T08:57:57.651Z,40.28
2019-02-18T08:58:57.666Z,40.01
2019-02-18T08:59:57.662Z,38.95
2019-02-18T09:01:02.646Z,38.97
2019-02-18T09:01:57.679Z,37.04
2019-02-18T09:02:57.692Z,36.41
2019-02-18T09:03:57.698Z,37.35
2019-02-18T09:04:57.703Z,37.35
2019-02-18T09:05:57.710Z,37.93
2019-02-18T09:06:57.718Z,38.14
2019-02-18T09:07:57.725Z,37.37
2019-02-18T09:08:57.734Z,37.26
2019-02-18T09:09:57.749Z,37.12
2019-02-18T09:10:57.752Z,37.04
2019-02-18T09:11:57.763Z,37.14
2019-02-18T09:12:57.772Z,36.95
2019-02-18T09:13:57.782Z,36.10
2019-02-18T09:14:57.790Z,34.77
2019-02-18T09:16:00.347Z,34.88
2019-02-18T09:16:57.818Z,34.11
2019-02-18T09:17:57.824Z,32.60
2019-02-18T09:18:57.833Z,31.37
2019-02-18T09:19:57.842Z,31.57
2019-02-18T09:20:57.855Z,30.22
2019-02-18T09:21:57.881Z,30.03
2019-02-18T09:22:57.877Z,30.05
2019-02-18T09:23:57.893Z,29.59
2019-02-18T09:24:57.920Z,29.88
2019-02-18T09:25:57.912Z,29.49
2019-02-18T09:26:57.923Z,28.62
2019-02-18T09:27:57.938Z,27.96
2019-02-18T09:28:57.946Z,27.67
2019-02-18T09:29:57.964Z,27.56
2019-02-18T09:30:57.974Z,27.09
2019-02-18T09:31:57.986Z,27.19
2019-02-18T09:32:58.006Z,28.62
2019-02-18T09:33:58.011Z,29.47
2019-02-18T09:35:01.925Z,30.33
2019-02-18T09:35:58.037Z,29.83
2019-02-18T09:36:58.050Z,29.74
2019-02-18T09:37:58.072Z,30.52
2019-02-18T09:38:58.085Z,30.05
2019-02-18T09:39:58.089Z,30.22
2019-02-18T09:40:58.105Z,31.86
2019-02-18T09:41:58.119Z,32.65
2019-02-18T09:42:58.134Z,31.96
2019-02-18T09:43:58.147Z,32.65
2019-02-18T09:44:58.158Z,31.41
2019-02-18T09:45:58.178Z,30.75
2019-02-18T09:46:58.257Z,30.54
2019-02-18T09:47:58.205Z,30.43
2019-02-18T09:48:58.218Z,30.49
2019-02-18T09:49:58.232Z,31.65
2019-02-18T09:51:00.004Z,32.43
2019-02-18T09:51:58.260Z,32.60
2019-02-18T09:52:58.288Z,32.60
2019-02-18T09:53:58.298Z,34.26
2019-02-18T09:54:58.307Z,33.72
2019-02-18T09:55:58.328Z,32.49
2019-02-18T09:56:58.337Z,32.41
2019-02-18T09:57:58.352Z,29.52
2019-02-18T09:58:58.369Z,29.61
2019-02-18T09:59:58.384Z,29.52
2019-02-18T10:00:58.399Z,26.50
2019-02-18T10:01:58.413Z,27.57
2019-02-18T10:02:58.437Z,27.56
2019-02-18T10:03:58.453Z,30.38
2019-02-18T10:04:58.475Z,29.88
2019-02-18T10:05:58.480Z,29.99
2019-02-18T10:06:58.498Z,29.86
2019-02-18T10:07:58.516Z,29.94
2019-02-18T10:08:58.532Z,29.64
2019-02-18T10:09:58.547Z,32.44
2019-02-18T10:10:58.566Z,31.07
2019-02-18T10:11:58.581Z,29.41
2019-02-18T10:12:59.713Z,30.27
2019-02-18T10:13:58.616Z,31.04
2019-02-18T10:14:58.640Z,32.10
2019-02-18T10:15:58.650Z,29.49
2019-02-18T10:16:58.670Z,29.39
2019-02-18T10:17:58.691Z,29.10
2019-02-18T10:18:58.703Z,28.72
2019-02-18T10:19:58.721Z,29.17
2019-02-18T10:20:58.736Z,29.27
2019-02-18T10:21:58.754Z,29.84
2019-02-18T10:22:58.771Z,30.52
2019-02-18T10:23:58.791Z,30.02
2019-02-18T10:24:58.808Z,30.58
2019-02-18T10:25:58.826Z,30.77
2019-02-18T10:26:58.842Z,31.16
2019-02-18T10:27:58.859Z,31.72
2019-02-18T10:28:58.878Z,31.80
2019-02-18T10:29:58.893Z,32.18
2019-02-18T10:30:58.915Z,32.47
2019-02-18T10:31:58.927Z,32.36
2019-02-18T10:32:58.952Z,32.65
2019-02-18T10:33:58.965Z,32.17
2019-02-18T10:34:58.979Z,32.46
2019-02-18T10:35:58.994Z,33.03
2019-02-18T10:36:59.011Z,32.55
2019-02-18T10:37:59.032Z,32.55
2019-02-18T10:38:59.042Z,32.84
2019-02-18T10:39:59.061Z,32.93
2019-02-18T10:41:06.491Z,32.65
2019-02-18T10:41:59.086Z,32.36
2019-02-18T10:42:59.104Z,32.75
2019-02-18T10:43:59.115Z,33.32
2019-02-18T10:44:59.128Z,33.13
2019-02-18T10:45:59.139Z,33.03
2019-02-18T10:46:59.169Z,33.15
2019-02-18T10:47:59.161Z,34.11
2019-02-18T10:48:59.236Z,32.28
2019-02-18T10:49:59.188Z,32.17
2019-02-18T10:50:59.240Z,32.36
2019-02-18T10:51:59.209Z,32.65
2019-02-18T10:52:59.218Z,32.95
2019-02-18T10:53:59.227Z,32.46
2019-02-18T10:54:59.237Z,32.84
2019-02-18T10:55:59.247Z,32.82
2019-02-18T10:56:59.255Z,32.73
2019-02-18T10:57:59.264Z,32.34
2019-02-18T10:58:59.270Z,33.21
2019-02-18T10:59:59.423Z,32.84
2019-02-18T11:00:59.286Z,32.84
2019-02-18T11:01:59.291Z,33.05
2019-02-18T11:02:59.304Z,31.90
2019-02-18T11:03:59.308Z,32.18
2019-02-18T11:04:59.316Z,32.38
2019-02-18T11:06:52.337Z,32.09
2019-02-18T11:07:52.220Z,32.30
2019-02-18T11:09:45.607Z,32.30
2019-02-18T11:10:45.604Z,31.62
2019-02-18T11:12:38.535Z,31.24
2019-02-18T11:13:38.497Z,31.74
2019-02-18T11:15:31.394Z,32.31
2019-02-18T11:16:31.387Z,33.28
2019-02-18T11:18:24.342Z,32.03
2019-02-18T11:19:24.318Z,32.04
2019-02-18T11:21:17.220Z,31.08
2019-02-18T11:22:17.168Z,31.27
2019-02-18T11:24:10.587Z,30.21
2019-02-18T11:25:10.582Z,30.42
2019-02-18T11:27:03.483Z,30.22
2019-02-18T11:28:03.466Z,30.02
2019-02-18T11:29:56.916Z,29.35
2019-02-18T11:30:56.891Z,29.63
2019-02-18T11:32:49.764Z,30.10
2019-02-18T11:33:49.751Z,30.29
2019-02-18T11:34:49.895Z,31.53
2019-02-18T11:35:49.724Z,31.62
2019-02-18T11:36:49.730Z,31.53
2019-02-18T11:37:49.738Z,31.82
2019-02-18T11:38:49.750Z,31.06
2019-02-18T11:39:49.750Z,30.97
2019-02-18T11:40:49.757Z,31.16
2019-02-18T11:41:49.759Z,31.27
2019-02-18T11:42:49.766Z,30.19
2019-02-18T11:43:49.771Z,29.52
2019-02-18T11:44:49.774Z,30.49
2019-02-18T11:45:49.782Z,30.79
2019-02-18T11:46:49.788Z,31.74
2019-02-18T11:47:49.791Z,31.16
2019-02-18T11:48:49.797Z,30.85
2019-02-18T11:49:49.803Z,30.47
2019-02-18T11:50:49.808Z,31.62
2019-02-18T11:51:49.810Z,29.69
2019-02-18T11:52:49.820Z,30.36
2019-02-18T11:53:49.825Z,30.57
2019-02-18T11:54:49.830Z,30.95
2019-02-18T11:55:49.845Z,30.18
2019-02-18T11:56:49.839Z,30.47
2019-02-18T11:57:49.845Z,30.38
2019-02-18T11:58:49.848Z,29.90
2019-02-18T11:59:49.854Z,30.18
2019-02-18T12:00:49.860Z,30.18
2019-02-18T12:01:49.865Z,30.17
2019-02-18T12:02:49.871Z,30.47
2019-02-18T12:03:49.874Z,31.41
2019-02-18T12:04:49.879Z,31.62
2019-02-18T12:05:49.889Z,31.72
2019-02-18T12:06:49.892Z,31.62
2019-02-18T12:07:49.894Z,31.34
2019-02-18T12:08:49.900Z,30.76
2019-02-18T12:09:49.911Z,29.79
2019-02-18T12:10:49.909Z,29.41
2019-02-18T12:11:49.924Z,29.70
2019-02-18T12:12:49.920Z,30.08
2019-02-18T12:13:49.924Z,29.41
2019-02-18T12:14:49.928Z,29.69
2019-02-18T12:15:49.936Z,29.88
2019-02-18T12:16:49.943Z,30.36
2019-02-18T12:17:49.942Z,31.03
2019-02-18T12:18:49.956Z,31.13
2019-02-18T12:19:49.954Z,31.80
2019-02-18T12:20:49.954Z,31.41
2019-02-18T12:21:49.981Z,30.35
2019-02-18T12:22:49.969Z,30.54
2019-02-18T12:23:49.972Z,30.81
2019-02-18T12:24:49.973Z,31.20
2019-02-18T12:25:49.979Z,31.69
2019-02-18T12:26:49.988Z,31.79
2019-02-18T12:27:49.988Z,31.20
2019-02-18T12:28:49.993Z,30.90
2019-02-18T12:29:50.002Z,32.25
2019-02-18T12:30:50.002Z,32.34
2019-02-18T12:31:50.004Z,32.82
2019-02-18T12:32:50.013Z,33.01
2019-02-18T12:33:52.003Z,32.25
2019-02-18T12:34:50.018Z,32.55
2019-02-18T12:35:50.023Z,32.07
2019-02-18T12:36:50.026Z,32.55
2019-02-18T12:37:55.339Z,32.36
2019-02-18T12:38:50.034Z,32.26
2019-02-18T12:39:50.042Z,32.26
2019-02-18T12:40:50.042Z,32.46
2019-02-18T12:41:50.053Z,32.46
2019-02-18T12:42:50.050Z,32.17
2019-02-18T12:43:50.055Z,33.05
2019-02-18T12:44:50.061Z,32.76
2019-02-18T12:45:50.067Z,32.47
2019-02-18T12:46:50.068Z,31.98
2019-02-18T12:47:50.073Z,32.18
2019-02-18T12:48:50.074Z,31.99
2019-02-18T12:49:51.069Z,32.28
2019-02-18T12:50:50.083Z,31.99
2019-02-18T12:51:50.086Z,32.46
2019-02-18T12:52:50.090Z,32.93
2019-02-18T12:53:50.119Z,32.93
2019-02-18T12:54:50.191Z,32.46
2019-02-18T12:55:50.223Z,32.46
2019-02-18T12:56:50.121Z,31.96
2019-02-18T12:57:57.984Z,32.64
2019-02-18T12:59:43.923Z,32.34
2019-02-18T13:00:43.603Z,32.44
2019-02-18T13:02:43.713Z,32.82
2019-02-18T13:03:36.481Z,32.82
2019-02-18T13:05:30.241Z,33.40
2019-02-18T13:06:29.923Z,32.82
2019-02-18T13:08:25.181Z,32.71
2019-02-18T13:09:23.311Z,32.90
2019-02-18T13:11:16.250Z,33.48
2019-02-18T13:12:16.291Z,32.90
2019-02-18T13:14:09.139Z,33.29
2019-02-18T13:15:09.163Z,32.90
2019-02-18T13:17:02.024Z,33.00
2019-02-18T13:19:55.466Z,33.48
2019-02-18T13:20:56.908Z,33.67
2019-02-18T13:22:48.505Z,33.96
2019-02-18T13:23:48.458Z,34.45
2019-02-18T13:25:47.428Z,34.15
2019-02-18T13:26:41.356Z,34.44
2019-02-18T13:28:34.441Z,34.25
2019-02-18T13:29:34.283Z,34.63
2019-02-18T13:31:27.764Z,35.21
2019-02-18T13:32:27.687Z,35.21
2019-02-18T13:34:21.153Z,34.53
2019-02-18T13:35:21.124Z,34.73
2019-02-18T13:37:14.739Z,34.73
2019-02-18T13:38:14.564Z,34.63
2019-02-18T13:40:08.062Z,34.15
2019-02-18T13:41:08.046Z,34.82
2019-02-18T13:43:00.963Z,35.11
2019-02-18T13:44:00.899Z,34.82
2019-02-18T13:45:53.766Z,36.15